Time;durP1;ratioP1;P1;durP2;ratioP2;P2;SDS_P1;SDS_P2;PMS_P1;PMS_P2;Temp;Humidity;BMP_temperature;BMP_pressure;BME280_temperature;BME280_humidity;BME280_pressure;Samples;Min_cycle;Max_cycle;Signal;HPM_P1;HPM_P2
2024/02/23 00:00:56;;;;;;;0.95;0.40;;;;;;;14.39;85.89;98155.44;5031122;27;96959;-76
2024/02/23 00:03:26;;;;;;;0.40;0.40;;;;;;;14.20;86.42;98158.94;5030030;27;96814;-77
2024/02/23 00:05:54;;;;;;;0.47;0.30;;;;;;;14.25;86.88;98166.47;5026226;27;99077;-79
2024/02/23 00:08:21;;;;;;;1.15;0.57;;;;;;;14.16;86.65;98162.84;5031685;27;99529;-77
2024/02/23 00:10:48;;;;;;;0.70;0.50;;;;;;;14.13;86.68;98160.47;5034896;27;96980;-76
2024/02/23 00:13:18;;;;;;;0.30;0.30;;;;;;;14.27;86.20;98153.88;5031233;27;96964;-77
2024/02/23 00:15:45;;;;;;;0.40;0.40;;;;;;;14.14;85.94;98151.50;5031864;27;101689;-78
2024/02/23 00:18:13;;;;;;;0.47;0.35;;;;;;;14.30;85.25;98167.75;5034033;27;101742;-77
2024/02/23 00:20:39;;;;;;;1.60;0.35;;;;;;;14.33;85.25;98153.31;5028518;27;96905;-78
2024/02/23 00:23:07;;;;;;;0.32;0.32;;;;;;;14.49;84.02;98153.66;5036716;27;97337;-76
2024/02/23 00:25:34;;;;;;;1.00;0.47;;;;;;;14.38;84.41;98156.44;5038961;27;98203;-76
2024/02/23 00:28:00;;;;;;;1.15;0.40;;;;;;;14.43;84.16;98151.56;5036814;27;97621;-75
2024/02/23 00:30:27;;;;;;;0.52;0.30;;;;;;;14.41;83.94;98150.84;5039723;27;97057;-78
2024/02/23 00:32:53;;;;;;;0.45;0.43;;;;;;;14.41;84.23;98136.72;5033429;27;96764;-76
2024/02/23 00:35:20;;;;;;;1.65;0.40;;;;;;;14.51;83.22;98150.81;5031770;27;97985;-77
2024/02/23 00:37:48;;;;;;;0.57;0.40;;;;;;;14.56;83.49;98154.75;5035961;27;101159;-77
2024/02/23 00:40:19;;;;;;;0.65;0.40;;;;;;;14.53;82.90;98152.38;5035097;27;97271;-77
2024/02/23 00:42:47;;;;;;;2.15;0.52;;;;;;;14.50;83.15;98157.16;5033346;27;97416;-77
2024/02/23 00:45:14;;;;;;;1.52;0.43;;;;;;;14.63;82.67;98139.09;5032990;27;98686;-76
2024/02/23 00:47:47;;;;;;;1.00;0.55;;;;;;;14.70;82.16;98156.94;5034131;27;98743;-77
2024/02/23 00:50:15;;;;;;;1.17;0.75;;;;;;;14.70;82.08;98162.25;5031831;27;96818;-78
2024/02/23 00:52:42;;;;;;;2.22;0.50;;;;;;;14.50;82.13;98150.00;5040486;27;96888;-79
2024/02/23 00:55:09;;;;;;;2.53;0.57;;;;;;;14.59;82.40;98158.94;5043928;27;99334;-79
2024/02/23 00:57:39;;;;;;;1.10;0.30;;;;;;;14.71;81.55;98155.97;5039188;27;98812;-77
2024/02/23 01:00:09;;;;;;;0.70;0.60;;;;;;;14.59;81.54;98169.56;5033987;27;97213;-77
2024/02/23 01:02:35;;;;;;;0.40;0.40;;;;;;;14.42;82.11;98183.56;5030431;27;98703;-78
2024/02/23 01:05:02;;;;;;;0.45;0.45;;;;;;;14.64;81.30;98200.03;5035586;27;98872;-77
2024/02/23 01:07:29;;;;;;;1.95;0.50;;;;;;;14.43;81.00;98202.03;5031410;27;99794;-78
2024/02/23 01:09:59;;;;;;;1.10;0.43;;;;;;;14.56;81.17;98189.31;5032934;27;96775;-77
2024/02/23 01:12:26;;;;;;;1.95;1.52;;;;;;;14.53;80.66;98197.53;5026690;27;97895;-76
2024/02/23 01:14:54;;;;;;;1.23;0.50;;;;;;;14.31;80.85;98193.31;5035549;27;99956;-78
2024/02/23 01:17:21;;;;;;;1.42;0.47;;;;;;;14.39;80.49;98211.25;5034343;27;101717;-76
2024/02/23 01:19:51;;;;;;;0.57;0.40;;;;;;;14.13;81.17;98223.34;5033278;27;100597;-76
2024/02/23 01:22:18;;;;;;;0.55;0.52;;;;;;;14.20;80.70;98222.66;5034668;27;97172;-76
2024/02/23 01:24:44;;;;;;;1.13;0.47;;;;;;;14.02;80.89;98223.47;5030558;27;98444;-78
2024/02/23 01:27:11;;;;;;;0.75;0.50;;;;;;;14.27;80.07;98242.38;5035435;27;100212;-75
2024/02/23 01:29:37;;;;;;;2.25;0.52;;;;;;;14.45;78.90;98234.59;5036000;27;97089;-75
2024/02/23 01:32:06;;;;;;;3.00;0.63;;;;;;;14.22;78.98;98228.69;5037605;27;96951;-75
2024/02/23 01:34:34;;;;;;;0.85;0.43;;;;;;;14.33;78.54;98239.19;5028831;27;98253;-75
2024/02/23 01:37:00;;;;;;;2.65;0.63;;;;;;;14.32;78.85;98248.13;5033726;27;97842;-77
2024/02/23 01:39:33;;;;;;;0.43;0.43;;;;;;;14.27;78.39;98245.03;5025815;27;98196;-76
2024/02/23 01:42:02;;;;;;;1.75;0.60;;;;;;;14.01;78.03;98258.97;5029230;27;97188;-77
2024/02/23 01:44:28;;;;;;;1.08;0.50;;;;;;;13.86;78.15;98264.66;5034808;27;98373;-77
2024/02/23 01:46:56;;;;;;;0.93;0.50;;;;;;;13.84;78.13;98274.59;5032420;27;100677;-77
2024/02/23 01:49:29;;;;;;;1.45;0.57;;;;;;;14.07;77.14;98274.34;5030464;27;97153;-77
2024/02/23 01:51:59;;;;;;;1.25;0.50;;;;;;;14.24;74.76;98271.06;5037753;27;97364;-78
2024/02/23 01:54:30;;;;;;;0.57;0.50;;;;;;;14.02;75.00;98288.03;5034985;27;97747;-79
2024/02/23 01:56:59;;;;;;;0.43;0.40;;;;;;;13.76;74.61;98300.09;5037930;27;98076;-77
2024/02/23 01:59:26;;;;;;;0.52;0.35;;;;;;;13.84;74.04;98305.59;5034636;27;97299;-78
2024/02/23 02:01:53;;;;;;;0.40;0.30;;;;;;;13.81;70.86;98306.69;5034447;27;97020;-78
2024/02/23 02:04:20;;;;;;;1.02;0.40;;;;;;;13.53;68.46;98321.50;5031324;27;99242;-80
2024/02/23 02:06:49;;;;;;;2.72;0.40;;;;;;;13.22;69.06;98334.84;5030497;27;101175;-78
2024/02/23 02:09:16;;;;;;;1.85;0.45;;;;;;;12.75;69.30;98347.53;5030724;27;96780;-78
2024/02/23 02:11:47;;;;;;;0.60;0.35;;;;;;;13.28;66.12;98366.16;5025766;27;96827;-77
2024/02/23 02:14:14;;;;;;;0.70;0.20;;;;;;;12.80;66.77;98387.75;5030639;27;101711;-78
2024/02/23 02:16:41;;;;;;;0.30;0.20;;;;;;;13.02;65.61;98379.72;5028076;27;100074;-78
2024/02/23 02:19:10;;;;;;;0.38;0.20;;;;;;;13.26;65.64;98394.63;5039501;27;96872;-77
2024/02/23 02:21:38;;;;;;;2.08;0.20;;;;;;;12.92;64.64;98389.44;5034669;27;96944;-78
2024/02/23 02:24:07;;;;;;;0.35;0.30;;;;;;;13.02;64.84;98398.28;5032890;27;99144;-76
2024/02/23 02:26:35;;;;;;;1.90;0.20;;;;;;;12.80;64.83;98427.50;5029130;27;97565;-76
2024/02/23 02:29:02;;;;;;;1.98;0.20;;;;;;;13.13;64.01;98442.50;5038179;27;98409;-76
2024/02/23 02:31:28;;;;;;;0.28;0.28;;;;;;;12.63;63.51;98465.13;5030924;27;97356;-76
2024/02/23 02:33:55;;;;;;;1.55;0.30;;;;;;;12.54;64.15;98460.56;5030684;27;98932;-77
2024/02/23 02:36:21;;;;;;;0.85;0.20;;;;;;;12.16;63.62;98460.94;5035574;27;99401;-76
2024/02/23 02:38:47;;;;;;;2.90;0.20;;;;;;;12.23;62.08;98468.28;5033349;27;97156;-77
2024/02/23 02:41:18;;;;;;;2.90;0.20;;;;;;;12.23;59.92;98470.91;5030685;27;97134;-77
2024/02/23 02:43:44;;;;;;;0.20;0.13;;;;;;;11.91;58.67;98485.81;5038598;27;100469;-76
2024/02/23 02:46:10;;;;;;;3.83;0.43;;;;;;;11.91;59.05;98491.94;5035199;27;98201;-76
2024/02/23 02:48:37;;;;;;;4.22;0.17;;;;;;;11.96;58.61;98481.00;5026732;27;99509;-77
2024/02/23 02:51:03;;;;;;;3.88;0.20;;;;;;;11.75;59.10;98498.53;5034286;27;96861;-77
2024/02/23 02:53:30;;;;;;;0.45;0.10;;;;;;;11.74;59.23;98507.41;5033465;27;99116;-77
2024/02/23 02:55:56;;;;;;;0.43;0.13;;;;;;;11.83;58.43;98507.56;5035162;27;98839;-76
2024/02/23 02:58:24;;;;;;;1.23;0.20;;;;;;;11.67;58.67;98517.59;5033290;27;96775;-77
2024/02/23 03:00:50;;;;;;;4.30;0.20;;;;;;;12.03;59.38;98529.00;5029974;27;96876;-77
2024/02/23 03:03:17;;;;;;;3.00;0.28;;;;;;;11.93;58.11;98528.88;5033818;27;97941;-78
2024/02/23 03:05:43;;;;;;;1.48;0.10;;;;;;;11.96;58.58;98531.28;5034938;27;98803;-76
2024/02/23 03:08:09;;;;;;;0.73;0.30;;;;;;;11.72;58.59;98536.59;5027361;27;97653;-76
2024/02/23 03:10:36;;;;;;;1.95;0.45;;;;;;;11.96;58.63;98549.81;5034204;27;97883;-76
2024/02/23 03:13:02;;;;;;;4.15;0.32;;;;;;;12.36;56.13;98559.03;5029720;27;98839;-76
2024/02/23 03:15:30;;;;;;;0.30;0.10;;;;;;;12.15;57.25;98567.78;5030679;27;98957;-76
2024/02/23 03:17:57;;;;;;;0.50;0.10;;;;;;;11.98;57.46;98556.69;5029397;27;96736;-76
2024/02/23 03:20:23;;;;;;;1.45;0.10;;;;;;;11.74;58.11;98557.69;5035664;27;97880;-76
2024/02/23 03:22:49;;;;;;;1.45;0.20;;;;;;;11.80;57.32;98557.22;5023806;27;98846;-75
2024/02/23 03:25:16;;;;;;;0.25;0.10;;;;;;;11.56;58.34;98573.06;5021579;27;99014;-75
2024/02/23 03:27:42;;;;;;;3.15;0.32;;;;;;;11.76;57.99;98580.41;5030771;27;96827;-75
2024/02/23 03:30:10;;;;;;;3.70;0.17;;;;;;;11.91;56.77;98589.00;5028902;27;98436;-75
2024/02/23 03:32:38;;;;;;;0.90;0.40;;;;;;;11.43;57.48;98588.16;5033215;27;99170;-75
2024/02/23 03:35:06;;;;;;;5.75;0.40;;;;;;;11.76;56.96;98598.09;5033025;27;98745;-75
2024/02/23 03:37:33;;;;;;;1.00;0.20;;;;;;;12.05;55.57;98607.34;5032373;27;98266;-76
2024/02/23 03:40:00;;;;;;;1.70;0.32;;;;;;;11.97;55.14;98597.34;5032098;27;96867;-76
2024/02/23 03:42:27;;;;;;;0.50;0.10;;;;;;;12.16;55.07;98615.31;5032763;27;98874;-78
2024/02/23 03:44:53;;;;;;;0.70;0.20;;;;;;;11.88;54.64;98607.78;5032017;27;100657;-76
2024/02/23 03:47:20;;;;;;;0.77;0.10;;;;;;;11.53;55.32;98610.34;5033146;27;99378;-76
2024/02/23 03:49:47;;;;;;;0.77;0.15;;;;;;;11.79;55.37;98627.81;5033038;27;96759;-76
2024/02/23 03:52:14;;;;;;;5.13;0.43;;;;;;;12.14;54.82;98629.66;5030112;27;99320;-76
2024/02/23 03:54:40;;;;;;;0.40;0.10;;;;;;;11.89;53.96;98626.16;5032615;27;98722;-75
2024/02/23 03:57:07;;;;;;;1.40;0.28;;;;;;;11.63;55.26;98634.31;5039704;27;97274;-75
2024/02/23 03:59:33;;;;;;;1.23;0.20;;;;;;;11.71;55.09;98648.66;5032566;27;98044;-76
2024/02/23 04:02:00;;;;;;;2.80;0.32;;;;;;;12.01;54.65;98658.00;5031185;27;99880;-76
2024/02/23 04:04:26;;;;;;;3.50;0.30;;;;;;;11.84;55.78;98652.13;5031804;27;98847;-76
2024/02/23 04:06:54;;;;;;;0.40;0.20;;;;;;;11.83;55.07;98660.19;5033594;27;97258;-76
2024/02/23 04:09:20;;;;;;;1.40;0.35;;;;;;;11.98;55.19;98659.91;5035628;27;96735;-76
2024/02/23 04:11:48;;;;;;;1.55;0.22;;;;;;;12.49;53.85;98664.03;5034688;27;101719;-76
2024/02/23 04:14:14;;;;;;;1.35;0.20;;;;;;;12.21;54.56;98675.88;5031436;27;101537;-76
2024/02/23 04:16:40;;;;;;;4.30;0.20;;;;;;;12.04;54.69;98679.78;5037297;27;96748;-76
2024/02/23 04:19:06;;;;;;;;;;;;;;;11.87;55.82;98690.78;5041863;27;96730;-75
2024/02/23 04:21:32;;;;;;;1.50;0.13;;;;;;;11.80;55.90;98695.66;5032132;27;98773;-76
2024/02/23 04:24:00;;;;;;;0.10;0.10;;;;;;;11.71;56.31;98713.97;5041415;27;98015;-75
2024/02/23 04:26:26;;;;;;;0.30;0.10;;;;;;;11.56;56.89;98726.47;5035163;27;97962;-75
2024/02/23 04:28:53;;;;;;;2.72;0.20;;;;;;;11.97;56.46;98715.59;5031013;27;96739;-75
2024/02/23 04:31:19;;;;;;;1.27;0.20;;;;;;;11.70;56.04;98714.91;5032129;27;97608;-75
2024/02/23 04:33:46;;;;;;;1.50;0.20;;;;;;;11.75;56.50;98710.19;5031903;27;101404;-76
2024/02/23 04:36:13;;;;;;;0.22;0.10;;;;;;;10.84;56.28;98727.19;5033466;27;97150;-76
2024/02/23 04:38:39;;;;;;;0.60;0.20;;;;;;;10.98;55.71;98735.84;5030114;27;96814;-75
2024/02/23 04:41:07;;;;;;;0.30;0.25;;;;;;;10.88;56.29;98742.75;5035070;27;99132;-76
2024/02/23 04:43:34;;;;;;;0.20;0.10;;;;;;;10.84;56.57;98756.22;5032261;27;99103;-76
2024/02/23 04:46:00;;;;;;;2.05;0.25;;;;;;;10.98;56.37;98730.56;5031829;27;96668;-76
2024/02/23 04:48:27;;;;;;;0.90;0.10;;;;;;;10.95;56.09;98767.78;5031056;27;96814;-76
2024/02/23 04:50:56;;;;;;;0.30;0.10;;;;;;;11.04;56.20;98775.06;5036596;27;101929;-76
2024/02/23 04:53:22;;;;;;;1.45;0.22;;;;;;;11.23;55.94;98784.38;5037219;27;98821;-76
2024/02/23 04:55:49;;;;;;;1.70;0.28;;;;;;;10.87;56.59;98787.75;5031727;27;97375;-76
2024/02/23 04:58:16;;;;;;;0.50;0.20;;;;;;;11.15;56.04;98791.06;5039295;27;99142;-76
2024/02/23 05:00:43;;;;;;;2.28;0.10;;;;;;;11.06;55.65;98801.41;5031035;27;99541;-77
2024/02/23 05:03:10;;;;;;;3.47;0.30;;;;;;;10.98;56.44;98809.84;5028178;27;98015;-76
2024/02/23 05:05:36;;;;;;;0.20;0.10;;;;;;;10.95;55.71;98830.38;5033191;27;96715;-75
2024/02/23 05:08:03;;;;;;;2.03;0.20;;;;;;;11.06;55.73;98833.97;5037062;27;96701;-76
2024/02/23 05:10:29;;;;;;;0.57;0.10;;;;;;;11.26;54.90;98827.34;5036474;27;101510;-76
2024/02/23 05:12:56;;;;;;;1.27;0.20;;;;;;;11.21;55.62;98853.25;5031953;27;97581;-76
2024/02/23 05:15:24;;;;;;;1.80;0.40;;;;;;;11.25;55.25;98862.66;5029852;27;97391;-75
2024/02/23 05:17:50;;;;;;;0.57;0.10;;;;;;;11.33;54.55;98856.84;5033450;27;97066;-76
2024/02/23 05:20:16;;;;;;;1.98;0.20;;;;;;;11.15;55.30;98859.78;4987858;27;1090413;-75
2024/02/23 05:22:43;;;;;;;1.38;0.20;;;;;;;11.47;54.36;98860.25;5035015;27;97206;-75
2024/02/23 05:25:09;;;;;;;0.30;0.10;;;;;;;11.15;53.31;98875.66;5035315;27;96831;-75
2024/02/23 05:27:36;;;;;;;0.03;0.03;;;;;;;11.29;53.00;98866.75;5032383;27;97443;-75
2024/02/23 05:30:02;;;;;;;0.10;0.00;;;;;;;10.92;53.20;98873.69;5031969;27;102337;-75
2024/02/23 05:32:30;;;;;;;0.47;0.10;;;;;;;11.08;53.80;98886.75;5042812;27;99130;-75
2024/02/23 05:34:56;;;;;;;0.20;0.17;;;;;;;10.35;55.51;98894.19;5036150;27;96965;-75
2024/02/23 05:37:23;;;;;;;0.40;0.10;;;;;;;11.06;53.79;98893.91;5034150;27;96813;-75
2024/02/23 05:39:50;;;;;;;0.10;0.10;;;;;;;11.06;54.01;98912.41;5035522;27;100707;-75
2024/02/23 05:42:16;;;;;;;0.55;0.10;;;;;;;10.46;55.64;98941.00;5041090;27;98949;-75
2024/02/23 05:44:44;;;;;;;1.45;0.10;;;;;;;10.16;56.89;98955.16;5036278;27;97987;-76
2024/02/23 05:47:11;;;;;;;0.88;0.10;;;;;;;10.14;56.70;98956.19;5038740;27;96812;-76
2024/02/23 05:49:38;;;;;;;0.13;0.00;;;;;;;10.23;56.22;98947.75;5029671;27;99112;-75
2024/02/23 05:52:05;;;;;;;0.25;0.10;;;;;;;10.06;56.49;98961.94;5027162;27;98810;-77
2024/02/23 05:54:31;;;;;;;0.08;0.08;;;;;;;10.01;56.99;98985.13;5029902;27;98007;-77
2024/02/23 05:57:01;;;;;;;0.20;0.10;;;;;;;9.95;56.72;98981.09;5030413;27;96922;-78
2024/02/23 05:59:28;;;;;;;0.30;0.10;;;;;;;10.06;55.99;98956.66;5027787;27;99811;-76
2024/02/23 06:01:56;;;;;;;1.85;0.10;;;;;;;10.25;54.69;98975.72;5025824;27;97652;-76
2024/02/23 06:04:23;;;;;;;0.60;0.10;;;;;;;9.68;56.73;98985.38;5030960;27;96856;-76
2024/02/23 06:06:51;;;;;;;0.45;0.08;;;;;;;10.04;55.91;98999.94;5029107;27;96765;-77
2024/02/23 06:09:18;;;;;;;0.10;0.10;;;;;;;10.04;55.89;98994.66;5032061;27;100019;-77
2024/02/23 06:11:45;;;;;;;0.35;0.10;;;;;;;9.99;55.80;98997.56;5026957;27;97940;-77
2024/02/23 06:14:11;;;;;;;1.85;0.20;;;;;;;10.20;55.51;99016.56;5032565;27;97085;-77
2024/02/23 06:16:38;;;;;;;0.22;0.22;;;;;;;10.15;55.33;99018.59;5034193;27;98720;-76
2024/02/23 06:19:03;;;;;;;1.45;0.10;;;;;;;10.10;55.38;99037.38;5029208;27;101684;-76
2024/02/23 06:21:30;;;;;;;;;;;;;;;10.38;55.15;99047.09;5028578;27;100699;-77
2024/02/23 06:23:57;;;;;;;0.40;0.13;;;;;;;10.39;55.03;99048.81;5031458;27;96735;-78
2024/02/23 06:26:23;;;;;;;0.65;0.10;;;;;;;10.12;55.34;99066.28;5032732;27;96907;-76
2024/02/23 06:28:53;;;;;;;0.40;0.22;;;;;;;10.06;55.20;99048.19;5028593;27;101093;-77
2024/02/23 06:31:23;;;;;;;0.30;0.20;;;;;;;10.23;55.60;99061.25;5023814;27;102076;-76
2024/02/23 06:33:54;;;;;;;1.45;0.13;;;;;;;10.17;55.14;99059.00;5029631;27;99085;-77
2024/02/23 06:36:20;;;;;;;3.15;0.15;;;;;;;10.17;56.00;99069.56;5028255;27;97377;-76
2024/02/23 06:38:47;;;;;;;1.45;0.20;;;;;;;10.33;54.75;99071.16;5030310;27;98863;-78
2024/02/23 06:41:15;;;;;;;1.60;0.20;;;;;;;10.63;54.19;99076.34;5031294;27;99177;-75
2024/02/23 06:43:41;;;;;;;0.17;0.08;;;;;;;10.72;53.87;99093.41;5027069;27;96762;-76
2024/02/23 06:46:09;;;;;;;0.15;0.10;;;;;;;10.33;54.35;99099.34;5026602;27;97781;-74
2024/02/23 06:48:36;;;;;;;1.65;0.20;;;;;;;10.35;54.67;99105.38;5028509;27;100975;-75
2024/02/23 06:51:03;;;;;;;0.13;0.08;;;;;;;10.14;54.90;99096.06;5026565;27;98821;-76
2024/02/23 06:53:29;;;;;;;0.38;0.10;;;;;;;10.50;53.78;99093.88;5027436;27;98380;-77
2024/02/23 06:55:56;;;;;;;3.92;0.10;;;;;;;10.54;53.83;99097.19;5015773;27;100707;-76
2024/02/23 06:58:24;;;;;;;0.20;0.10;;;;;;;10.78;53.00;99108.88;5015348;27;97713;-76
2024/02/23 07:00:51;;;;;;;1.67;0.25;;;;;;;10.71;53.17;99124.25;5024334;27;101725;-78
2024/02/23 07:03:17;;;;;;;0.45;0.35;;;;;;;10.69;53.68;99127.97;5025883;27;98222;-75
2024/02/23 07:05:50;;;;;;;1.85;0.20;;;;;;;11.04;52.53;99118.66;5026757;27;97267;-78
2024/02/23 07:08:17;;;;;;;0.20;0.10;;;;;;;10.59;53.06;99125.03;5025267;27;100791;-76
2024/02/23 07:10:44;;;;;;;1.60;0.15;;;;;;;10.90;52.62;99123.97;5024491;27;98954;-75
2024/02/23 07:13:10;;;;;;;2.20;0.20;;;;;;;10.18;54.44;99130.13;5019547;27;98447;-76
2024/02/23 07:15:38;;;;;;;0.40;0.20;;;;;;;9.94;55.08;99137.69;5026577;27;100095;-76
2024/02/23 07:18:05;;;;;;;0.13;0.10;;;;;;;9.74;56.22;99143.25;5024338;27;99474;-76
2024/02/23 07:20:32;;;;;;;2.08;0.20;;;;;;;9.77;56.33;99135.19;5026429;27;99286;-76
2024/02/23 07:22:59;;;;;;;0.35;0.20;;;;;;;10.19;55.91;99145.03;5027104;27;97452;-77
2024/02/23 07:25:25;;;;;;;2.05;0.20;;;;;;;9.95;55.66;99136.75;5024454;27;98950;-76
2024/02/23 07:27:52;;;;;;;1.63;0.35;;;;;;;10.38;54.92;99156.22;5029166;27;98060;-77
2024/02/23 07:30:19;;;;;;;1.27;0.35;;;;;;;9.92;56.46;99162.44;5023803;27;98376;-76
2024/02/23 07:32:48;;;;;;;1.25;0.32;;;;;;;10.03;56.33;99161.84;5026547;27;97126;-76
2024/02/23 07:35:14;;;;;;;2.83;0.20;;;;;;;10.40;54.91;99164.03;5027335;27;96887;-76
2024/02/23 07:37:43;;;;;;;0.40;0.20;;;;;;;10.07;56.51;99164.22;5020923;27;99071;-77
2024/02/23 07:40:10;;;;;;;0.50;0.38;;;;;;;10.46;55.78;99166.31;5020805;27;99562;-78
2024/02/23 07:42:37;;;;;;;3.13;0.45;;;;;;;11.02;55.90;99170.81;5024083;27;97217;-76
2024/02/23 07:45:10;;;;;;;0.57;0.32;;;;;;;11.38;52.95;99172.06;5016876;27;98088;-75
2024/02/23 07:47:37;;;;;;;3.67;0.43;;;;;;;11.16;53.28;99172.56;5018377;27;98973;-77
2024/02/23 07:50:05;;;;;;;0.85;0.22;;;;;;;11.05;53.36;99175.03;5020027;27;99220;-77
2024/02/23 07:52:32;;;;;;;0.55;0.10;;;;;;;11.38;52.81;99180.00;5024229;27;97445;-76
2024/02/23 07:54:59;;;;;;;3.30;0.50;;;;;;;11.92;52.12;99189.72;5016554;27;97175;-78
2024/02/23 07:57:26;;;;;;;12.00;0.75;;;;;;;12.13;52.21;99187.47;5014245;27;99139;-76
2024/02/23 07:59:52;;;;;;;2.47;0.20;;;;;;;11.93;50.91;99202.00;5018638;27;98475;-76
2024/02/23 08:02:19;;;;;;;0.45;0.20;;;;;;;11.82;51.04;99215.06;5014617;27;98707;-76
2024/02/23 08:04:47;;;;;;;0.35;0.20;;;;;;;11.87;51.44;99220.94;5012139;27;96829;-77
2024/02/23 08:07:15;;;;;;;5.18;0.52;;;;;;;12.12;51.65;99221.97;5024158;27;98927;-76
2024/02/23 08:09:41;;;;;;;1.02;0.15;;;;;;;12.02;50.59;99219.06;5026294;27;100738;-76
2024/02/23 08:12:08;;;;;;;28.08;1.83;;;;;;;12.13;51.16;99228.97;5025047;27;96882;-76
2024/02/23 08:14:35;;;;;;;2.08;0.20;;;;;;;12.35;50.08;99237.19;5024398;27;97800;-76
2024/02/23 08:17:01;;;;;;;2.15;0.20;;;;;;;12.12;51.12;99238.72;5035282;27;98979;-77
2024/02/23 08:19:28;;;;;;;0.20;0.17;;;;;;;12.00;51.77;99243.97;5032578;27;99205;-77
2024/02/23 08:22:00;;;;;;;6.82;0.52;;;;;;;12.15;50.32;99238.50;5037403;27;97400;-78
2024/02/23 08:24:27;;;;;;;95.00;4.95;;;;;;;12.40;51.68;99234.25;5022432;27;98107;-76
2024/02/23 08:26:54;;;;;;;3.47;0.30;;;;;;;12.58;50.25;99249.75;5022651;27;101643;-76
2024/02/23 08:29:20;;;;;;;1.45;0.13;;;;;;;11.27;52.67;99253.88;5026317;27;98847;-73
2024/02/23 08:31:47;;;;;;;0.60;0.38;;;;;;;11.52;52.95;99272.56;5020366;27;97731;-77
2024/02/23 08:34:13;;;;;;;10.52;0.95;;;;;;;11.84;51.53;99276.69;5026280;27;97377;-77
2024/02/23 08:36:44;;;;;;;0.85;0.20;;;;;;;11.65;52.12;99270.00;5034828;27;101691;-78
2024/02/23 08:39:10;;;;;;;27.00;1.23;;;;;;;12.38;50.62;99263.47;5021367;27;101449;-78
2024/02/23 08:41:38;;;;;;;1.88;0.22;;;;;;;12.60;49.66;99261.06;5025515;27;98510;-77
2024/02/23 08:44:05;;;;;;;5.00;0.20;;;;;;;12.46;49.47;99258.53;5026924;27;98899;-78
2024/02/23 08:46:31;;;;;;;9.45;0.73;;;;;;;12.71;49.06;99258.56;5025092;27;100754;-77
2024/02/23 08:48:58;;;;;;;3.80;1.48;;;;;;;13.06;48.04;99265.94;5026729;27;99905;-77
2024/02/23 08:51:24;;;;;;;2.72;0.60;;;;;;;13.26;47.68;99265.41;5022635;27;96865;-76
2024/02/23 08:53:51;;;;;;;3.65;0.55;;;;;;;12.60;48.65;99265.56;5026472;27;98136;-77
2024/02/23 08:56:17;;;;;;;8.38;0.60;;;;;;;12.72;48.80;99264.72;5028041;27;98932;-78
2024/02/23 08:58:47;;;;;;;2.63;0.43;;;;;;;12.85;47.47;99270.03;5023738;27;98927;-78
2024/02/23 09:01:14;;;;;;;2.58;0.40;;;;;;;12.94;46.43;99280.00;5025890;27;96849;-77
2024/02/23 09:03:40;;;;;;;3.80;0.60;;;;;;;12.54;47.44;99290.63;5030911;27;96995;-78
2024/02/23 09:06:07;;;;;;;2.83;0.88;;;;;;;12.27;47.43;99297.78;5026101;27;99509;-77
2024/02/23 09:08:33;;;;;;;1.33;0.20;;;;;;;11.40;49.38;99283.91;5026504;27;99197;-77
2024/02/23 09:11:00;;;;;;;3.20;0.40;;;;;;;11.84;49.10;99292.56;5025808;27;97294;-77
2024/02/23 09:13:30;;;;;;;3.45;0.30;;;;;;;12.36;48.88;99286.56;5025793;27;96955;-77
2024/02/23 09:16:00;;;;;;;2.40;0.30;;;;;;;12.99;47.14;99278.75;5022817;27;99955;-78
2024/02/23 09:18:27;;;;;;;1.30;0.30;;;;;;;13.25;46.83;99287.59;5033203;27;99262;-78
2024/02/23 09:20:53;;;;;;;1.80;0.40;;;;;;;13.13;44.50;99301.69;5030172;27;97023;-77
2024/02/23 09:23:20;;;;;;;2.45;0.38;;;;;;;13.68;45.10;99293.38;5030191;27;98492;-77
2024/02/23 09:25:49;;;;;;;0.70;0.20;;;;;;;13.14;44.98;99298.94;5023302;27;98389;-77
2024/02/23 09:28:15;;;;;;;2.88;0.35;;;;;;;12.84;45.63;99295.69;5016584;27;97834;-77
2024/02/23 09:30:42;;;;;;;4.28;0.98;;;;;;;12.92;44.79;99303.13;5024316;27;96908;-78
2024/02/23 09:33:09;;;;;;;5.75;2.67;;;;;;;12.31;44.17;99302.75;5029511;27;97766;-78
2024/02/23 09:35:39;;;;;;;1.02;0.43;;;;;;;12.54;44.92;99303.88;5025060;27;99309;-77
2024/02/23 09:38:06;;;;;;;2.10;0.35;;;;;;;12.70;43.64;99307.22;5022143;27;97910;-76
2024/02/23 09:40:32;;;;;;;4.18;2.47;;;;;;;12.88;44.09;99313.09;5026137;27;97652;-77
2024/02/23 09:43:00;;;;;;;1.30;0.30;;;;;;;12.45;44.45;99316.91;5026029;27;96900;-77
2024/02/23 09:45:27;;;;;;;2.33;0.25;;;;;;;12.66;45.39;99324.28;5020451;27;98935;-77
2024/02/23 09:47:55;;;;;;;0.20;0.20;;;;;;;12.61;43.80;99330.81;5023461;27;101271;-78
2024/02/23 09:50:25;;;;;;;1.60;0.40;;;;;;;12.70;43.01;99332.88;5029622;27;97139;-78
2024/02/23 09:52:52;;;;;;;2.92;0.22;;;;;;;12.88;42.97;99334.28;5026947;27;100862;-77
2024/02/23 09:55:18;;;;;;;2.53;0.28;;;;;;;12.72;43.31;99353.03;5027161;27;99776;-77
2024/02/23 09:57:46;;;;;;;1.15;0.32;;;;;;;12.42;43.87;99354.19;5030038;27;97187;-77
2024/02/23 10:00:13;;;;;;;1.23;0.17;;;;;;;12.64;43.08;99359.78;5027395;27;97404;-77
2024/02/23 10:02:40;;;;;;;3.20;0.60;;;;;;;12.12;45.29;99360.50;5030809;27;98307;-78
2024/02/23 10:05:11;;;;;;;2.15;0.47;;;;;;;12.39;44.86;99363.19;5025702;27;98912;-80
2024/02/23 10:07:38;;;;;;;1.55;0.20;;;;;;;12.85;44.34;99358.38;5029683;27;99526;-76
2024/02/23 10:10:07;;;;;;;1.27;0.40;;;;;;;13.49;43.16;99340.75;5024292;27;97608;-77
2024/02/23 10:12:34;;;;;;;0.98;0.40;;;;;;;13.83;42.91;99340.09;5026802;27;97385;-76
2024/02/23 10:15:03;;;;;;;0.80;0.20;;;;;;;13.56;44.00;99350.00;5021650;27;98841;-77
2024/02/23 10:17:30;;;;;;;1.63;0.15;;;;;;;13.54;44.34;99365.16;5030862;27;98839;-77
2024/02/23 10:19:57;;;;;;;2.80;0.40;;;;;;;13.56;44.41;99371.22;5028330;27;97070;-76
2024/02/23 10:22:25;;;;;;;0.77;0.25;;;;;;;13.82;44.13;99366.75;5026242;27;97169;-76
2024/02/23 10:24:52;;;;;;;2.05;0.22;;;;;;;12.86;46.50;99362.72;5024357;27;101877;-76
2024/02/23 10:27:19;;;;;;;0.90;0.30;;;;;;;13.00;45.37;99365.28;5033908;27;101156;-76
2024/02/23 10:29:45;;;;;;;1.05;0.45;;;;;;;13.21;43.61;99367.47;5026437;27;96826;-77
2024/02/23 10:32:16;;;;;;;1.27;0.28;;;;;;;13.74;42.36;99356.66;5027651;27;97339;-77
2024/02/23 10:34:43;;;;;;;2.90;0.40;;;;;;;13.56;42.96;99356.16;5031562;27;101054;-77
2024/02/23 10:37:10;;;;;;;0.85;0.15;;;;;;;13.66;43.32;99369.63;5025438;27;99125;-77
2024/02/23 10:39:38;;;;;;;0.47;0.20;;;;;;;13.05;43.09;99359.69;5023532;27;97981;-78
2024/02/23 10:42:09;;;;;;;1.02;0.30;;;;;;;12.62;45.03;99372.28;5027761;27;96768;-77
2024/02/23 10:44:37;;;;;;;0.32;0.13;;;;;;;13.01;43.49;99361.69;5024399;27;99292;-77
2024/02/23 10:47:05;;;;;;;0.60;0.20;;;;;;;13.48;42.30;99358.47;5029622;27;99264;-77
2024/02/23 10:49:32;;;;;;;4.22;0.35;;;;;;;12.94;43.00;99371.00;5030032;27;97732;-69
2024/02/23 10:51:59;;;;;;;2.22;0.28;;;;;;;11.93;44.42;99382.00;5029957;27;97268;-79
2024/02/23 10:54:27;;;;;;;3.83;0.70;;;;;;;12.54;43.67;99378.06;5037023;27;99269;-77
2024/02/23 10:56:55;;;;;;;28.05;2.10;;;;;;;13.28;43.75;99382.03;5029506;27;98249;-77
2024/02/23 10:59:23;;;;;;;3.42;0.40;;;;;;;13.88;41.96;99372.47;5029897;27;97140;-76
2024/02/23 11:01:51;;;;;;;4.63;0.30;;;;;;;13.35;42.36;99370.03;5028797;27;97166;-76
2024/02/23 11:04:20;;;;;;;1.45;0.32;;;;;;;13.48;43.09;99376.19;5023956;27;99474;-77
2024/02/23 11:06:50;;;;;;;5.47;0.45;;;;;;;13.69;41.85;99382.69;5035091;27;99343;-76
2024/02/23 11:09:17;;;;;;;0.90;0.50;;;;;;;14.16;40.94;99378.47;5029286;27;98964;-76
2024/02/23 11:11:53;;;;;;;1.38;0.40;;;;;;;14.04;41.51;99376.72;5027743;27;96797;-77
2024/02/23 11:14:32;;;;;;;2.72;0.43;;;;;;;14.35;40.97;99373.53;5032933;27;98824;-76
2024/02/23 11:16:59;;;;;;;5.72;0.57;;;;;;;14.30;39.57;99384.50;5029271;27;97636;-77
2024/02/23 11:19:34;;;;;;;1.45;0.35;;;;;;;13.69;40.54;99374.72;5028508;27;98593;-76
2024/02/23 11:22:00;;;;;;;2.63;0.40;;;;;;;13.28;41.63;99385.53;5026483;28;97207;-76
2024/02/23 11:24:29;;;;;;;1.25;0.20;;;;;;;13.52;41.61;99381.19;5024616;27;99343;-77
2024/02/23 11:26:57;;;;;;;4.95;0.63;;;;;;;13.50;42.24;99387.56;5019972;27;99629;-77
2024/02/23 11:29:27;;;;;;;1.38;0.75;;;;;;;14.02;40.85;99389.22;5024539;27;98308;-77
2024/02/23 11:32:01;;;;;;;3.10;0.40;;;;;;;14.33;40.29;99396.69;5022290;27;96913;-77